• Join FlightAware (Why Join?)
  • Login
  • US Flag 
12:30AM EST


 

Airport Tracker/Info


-or-


 

Live Flight TrackerFlight Track Log ✈ EJM19 ✈ 07-Jul-2013 ✈ MRLB / LIR - KTEB

Flight Track Log - Related Links

Times and Time Zones

All times are in EDT time to prevent confusion due to time zone crossing. See the EJM19 flight status page for this flight to view local times or setup timezone preferences in your user account.

Time Position Orientation Groundspeed Altitude Reporting Facility
EDT Latitude Longitude Course Direction KTS MPH feet Rate Location/Type
03:03PM 23.1302 -81.5135 17° North  Level Estimated
03:04PM 23.2370 -81.4764 18° North  Level Estimated
03:04PM 23.0508 -81.5336 18° North 414 476 45,000  Level Miami Center
03:05PM 23.3437 -81.4392 18° North  Level Estimated
03:05PM 23.1586 -81.4925 19° North 403 464 45,000  Level Miami Center
03:06PM 23.4505 -81.4019 18° North  Level Estimated
03:06PM 23.2639 -81.4600 16° North 398 458 45,000  Level Miami Center
03:07PM 23.5572 -81.3646 18° North  Level Estimated
03:07PM 23.3736 -81.4233 17° North 398 458 45,000  Level Miami Center
03:08PM 23.6639 -81.3272 18° North  Level Estimated
03:08PM 23.4792 -81.3886 17° North 398 458 45,000  Level Miami Center
03:09PM 23.7706 -81.2897 18° North  Level Estimated
03:09PM 23.5864 -81.3606 13° North 398 458 45,000  Level Miami Center
03:10PM 23.6992 -81.3600 360° North 398 458 45,000  Level Miami Center
03:11PM 23.8164 -81.3553 North 405 466 45,000  Level Miami Center
03:12PM 23.9311 -81.3569 359° North 405 466 45,000  Level Miami Center
03:13PM 24.0458 -81.3589 359° North 405 466 45,000  Level Miami Center
03:14PM 24.1586 -81.3583 360° North 405 466 45,000  Level Miami Center
03:15PM 24.2694 -81.3556 North 400 460 45,000  Level Miami Center
03:16PM 24.3844 -81.3572 359° North 405 466 45,000  Level Miami Center
03:17PM 24.4992 -81.3569 360° North 405 466 45,000  Level Miami Center
03:18PM 24.6119 -81.3564 360° North 400 460 45,000  Level Miami Center
03:19PM 24.7247 -81.3558 360° North 400 460 45,000  Level Miami Center
03:20PM 24.8361 -81.3394 North 400 460 45,000  Level Miami Center
03:21PM 24.9472 -81.3206 North 405 466 45,000  Level Miami Center
03:22PM 25.0606 -81.3039 North 405 466 45,000  Level Miami Center
03:23PM 25.1697 -81.2850 North 405 466 45,000  Level Miami Center
03:24PM 25.2767 -81.2683 North 405 466 45,000  Level Miami Center
03:25PM 25.3900 -81.2494 North 405 466 45,000  Level Miami Center
03:26PM 25.5033 -81.2306 North 405 466 45,000  Level Miami Center
03:27PM 25.6144 -81.2136 North 410 472 45,000  Level Miami Center
03:28PM 25.7275 -81.2086 North 410 472 45,000  Level Miami Center
03:29PM 25.8444 -81.2128 358° North 405 466 45,000 -60 Level Miami Center
03:30PM 25.9589 -81.2194 357° North 405 466 44,900 -360 Descending Miami Center
03:31PM 26.0717 -81.2233 358° North 405 466 44,400 -540 Descending Miami Center
03:32PM 26.1906 -81.2300 357° North 410 472 43,900 -540 Descending Miami Center
03:33PM 26.3117 -81.2300 360° North 416 479 43,400 -480 Descending Miami Center
03:34PM 26.4219 -81.2386 356° North 416 479 43,000 -240 Descending Miami Center
03:35PM 26.5492 -81.2456 357° North 416 479 43,000  Level Miami Center
03:36PM 26.6514 -81.2517 357° North 416 479 43,000  Level Miami Center
03:37PM 26.7658 -81.2608 356° North 411 473 43,000  Level Miami Center
03:38PM 26.8931 -81.2678 357° North 411 473 43,000  Level Miami Center
03:39PM 27.0094 -81.2792 355° North 411 473 43,000  Level Miami Center
03:40PM 27.1158 -81.2833 358° North 416 479 43,000  Level Miami Center
03:41PM 27.2325 -81.2925 356° North 416 479 43,000  Level Miami Center
03:42PM 27.3469 -81.3014 356° North 421 484 43,000  Level Miami Center
03:43PM 27.4636 -81.3083 357° North 421 484 43,000  Level Miami Center
03:44PM 27.5803 -81.3175 356° North 421 484 43,000  Level Miami Center
03:45PM 27.6969 -81.3244 357° North 421 484 43,000  Level Miami Center
03:46PM 27.8136 -81.3336 356° North 421 484 43,000  Level Miami Center
03:47PM 27.9322 -81.3408 357° North 421 484 43,000  Level Miami Center
03:48PM 28.0614 -81.3506 356° North 421 484 43,000  Level Miami Center
03:49PM 28.1781 -81.3575 357° North 421 484 43,000  Level Miami Center
03:51PM 28.4311 -81.3747 357° North 416 479 43,000  Level Jacksonville Center
03:52PM 28.5481 -81.3872 355° North 416 479 43,000  Level Jacksonville Center
03:53PM 28.6628 -81.3925 358° North 416 479 43,000  Level Jacksonville Center
03:54PM 28.7778 -81.4003 357° North 416 479 43,000  Level Jacksonville Center
03:55PM 28.8967 -81.4056 358° North 421 484 43,000  Level Jacksonville Center
03:56PM 29.0097 -81.4158 355° North 421 484 43,000  Level Jacksonville Center
03:57PM 29.1244 -81.4258 356° North 421 484 43,000  Level Jacksonville Center
03:58PM 29.2372 -81.4339 356° North 416 479 43,000  Level Jacksonville Center
03:59PM 29.3522 -81.4439 356° North 411 473 43,000  Level Jacksonville Center
04:00PM 29.4650 -81.4494 358° North 406 467 43,000  Level Jacksonville Center
04:01PM 29.5800 -81.4572 357° North 406 467 43,000  Level Jacksonville Center
04:02PM 29.6947 -81.4556 North 406 467 43,000  Level Jacksonville Center
04:03PM 29.8050 -81.4181 16° North 407 468 43,000  Level Jacksonville Center
04:04PM 29.9089 -81.3711 21° North 402 463 43,000  Level Jacksonville Center
04:05PM 30.0147 -81.3261 20° North 402 463 43,000  Level Jacksonville Center
04:06PM 30.1228 -81.2789 21° North 402 463 43,000  Level Jacksonville Center
04:07PM 30.2286 -81.2336 20° North 408 470 43,000  Level Jacksonville Center
04:08PM 30.3344 -81.1861 21° North 408 470 43,000  Level Jacksonville Center
04:09PM 30.4319 -81.1436 21° North 408 470 43,000  Level Jacksonville Center
04:10PM 30.5400 -81.0981 20° North 408 470 43,000  Level Jacksonville Center
04:11PM 30.6458 -81.0503 21° North 408 470 43,000  Level Jacksonville Center
04:12PM 30.7514 -81.0047 20° North 408 470 43,000  Level Jacksonville Center
04:13PM 30.8614 -80.9564 21° North 408 470 43,000  Level Jacksonville Center
04:14PM 30.9694 -80.9108 20° North 414 476 43,000  Level Jacksonville Center
04:15PM 31.0772 -80.8600 22° Northeast 414 476 43,000  Level Jacksonville Center
04:16PM 31.1850 -80.8139 20° North 409 471 43,000  Level Jacksonville Center
04:17PM 31.2947 -80.7678 20° North 409 471 43,000  Level Jacksonville Center
04:18PM 31.4047 -80.7189 21° North 409 471 43,000  Level Jacksonville Center
04:19PM 31.5122 -80.6678 22° Northeast 409 471 43,000  Level Jacksonville Center
04:20PM 31.6303 -80.6136 21° North 409 471 43,000  Level Jacksonville Center
04:21PM 31.7297 -80.5672 22° Northeast 409 471 43,000  Level Jacksonville Center
04:22PM 31.8500 -80.5153 20° North 409 471 43,000  Level Jacksonville Center
04:23PM 31.9594 -80.4636 22° Northeast 409 471 43,000  Level Jacksonville Center
04:24PM 32.0672 -80.4164 20° North 409 471 43,000  Level Jacksonville Center
04:25PM 32.1789 -80.3694 20° North 415 478 43,000  Level Jacksonville Center
04:26PM 32.2864 -80.3172 22° Northeast 415 478 43,000  Level Jacksonville Center
04:27PM 32.3961 -80.2672 21° North 415 478 43,000  Level Jacksonville Center
04:28PM 32.5078 -80.2150 22° Northeast 415 478 43,000  Level Jacksonville Center
04:29PM 32.6172 -80.1647 21° North 415 478 43,000  Level Jacksonville Center
04:30PM 32.7333 -80.1267 15° North 420 483 43,000  Level Jacksonville Center
04:31PM 32.8453 -80.0886 16° North 420 483 43,000  Level Jacksonville Center
04:32PM 32.9611 -80.0478 16° North 420 483 43,000  Level Jacksonville Center
04:33PM 33.0711 -80.0122 15° North 432 497 43,000  Level Jacksonville Center
04:34PM 33.1872 -79.9811 13° North 432 497 43,000  Level Jacksonville Center
04:35PM 33.3033 -79.9475 14° North 427 491 43,000  Level Jacksonville Center
04:36PM 33.4172 -79.9139 14° North 427 491 43,000  Level Jacksonville Center
04:37PM 33.5333 -79.8800 14° North 427 491 43,000  Level Jacksonville Center
04:38PM 33.6514 -79.8436 14° North 427 491 43,000 -120 Level Jacksonville Center
04:39PM 33.7672 -79.8047 16° North 432 497 42,800 -360 Descending Jacksonville Center
04:40PM 33.8853 -79.7681 14° North 432 497 42,300 -540 Descending Jacksonville Center
04:41PM 34.0033 -79.7286 15° North 432 497 41,800 -540 Descending Jacksonville Center
04:42PM 34.1233 -79.6917 14° North 432 497 41,300 -360 Descending Jacksonville Center
04:44PM 34.3319 -79.6056 19° North 431 496 40,900 -120 Descending Washington Center
04:45PM 34.4444 -79.5458 24° Northeast 436 502 41,000  Climbing Washington Center
04:46PM 34.5592 -79.4856 23° Northeast 441 507 41,000  Level Washington Center
04:47PM 34.6717 -79.4228 25° Northeast 441 507 41,000  Level Washington Center
04:48PM 34.7842 -79.3650 23° Northeast 441 507 41,000  Level Washington Center
04:49PM 34.8947 -79.3017 25° Northeast 441 507 41,000  Level Washington Center
04:50PM 35.0092 -79.2436 23° Northeast 441 507 41,000  Level Washington Center
04:51PM 35.1236 -79.1828 23° Northeast 441 507 41,000  Level Washington Center
04:52PM 35.2381 -79.1217 24° Northeast 447 514 41,000  Level Washington Center
04:53PM 35.3547 -79.0606 23° Northeast 442 509 41,000  Level Washington Center
04:54PM 35.4669 -78.9967 25° Northeast 447 514 41,000  Level Washington Center
04:55PM 35.5836 -78.9353 23° Northeast 447 514 41,000  Level Washington Center
04:56PM 35.7003 -78.8683 25° Northeast 447 514 41,000  Level Washington Center
04:57PM 35.8167 -78.8067 23° Northeast 447 514 41,000  Level Washington Center
04:58PM 35.9331 -78.7394 25° Northeast 447 514 41,000  Level Washington Center
04:59PM 36.0347 -78.6819 25° Northeast 447 514 41,000  Level Washington Center
05:00PM 36.1492 -78.6169 25° Northeast 447 514 41,000  Level Washington Center
05:01PM 36.2422 -78.5664 24° Northeast 447 514 41,000  Level Washington Center
05:02PM 36.3819 -78.4867 25° Northeast 447 514 41,000  Level Washington Center
05:03PM 36.4981 -78.4239 23° Northeast 447 514 41,000  Level Washington Center
05:04PM 36.6144 -78.3556 25° Northeast 447 514 41,000  Level Washington Center
05:05PM 36.7286 -78.2897 25° Northeast 442 509 41,000 -180 Level Washington Center
05:06PM 36.8450 -78.2236 24° Northeast 448 516 40,700 -1,560 Descending Washington Center
05:07PM 36.9592 -78.1547 26° Northeast 448 516 38,000 -1,920 Descending Washington Center
05:08PM 37.0731 -78.0936 23° Northeast 448 516 37,000 -1,140 Descending Washington Center
05:09PM 37.1933 -78.0244 25° Northeast 448 516 35,800 -1,020 Descending Washington Center
05:10PM 37.3114 -77.9578 24° Northeast 448 516 35,000 -420 Descending Washington Center
05:11PM 37.4317 -77.8856 25° Northeast 453 521 35,000  Level Washington Center
05:12PM 37.5500 -77.8078 28° Northeast 461 531 35,000  Level Washington Center
05:13PM 37.6603 -77.7114 35° Northeast 472 543 35,000  Level Washington Center
05:14PM 37.7706 -77.6119 35° Northeast 478 550 35,000  Level Washington Center
05:15PM 37.8783 -77.5122 36° Northeast 478 550 35,000  Level Washington Center
05:16PM 37.9864 -77.4122 36° Northeast 484 557 35,000  Level Washington Center
05:17PM 38.0919 -77.3144 36° Northeast 478 550 35,000  Level Washington Center
05:18PM 38.1997 -77.2167 35° Northeast 478 550 35,000  Level Washington Center
05:19PM 38.3053 -77.1183 36° Northeast 478 550 35,000  Level Washington Center
05:20PM 38.4108 -77.0200 36° Northeast 478 550 35,000  Level Washington Center
05:21PM 38.5161 -76.9236 36° Northeast 478 550 35,000  Level Washington Center
05:22PM 38.6194 -76.8247 37° Northeast 473 544 35,000 -180 Level Washington Center
05:23PM 38.7203 -76.7253 38° Northeast 468 539 34,700 -1,380 Descending Washington Center
05:24PM 38.8194 -76.6147 41° Northeast 463 533 32,300 -2,460 Descending Washington Center
05:25PM 38.9161 -76.4986 43° Northeast 463 533 29,800 -2,280 Descending Washington Center
05:26PM 39.0256 -76.3744 41° Northeast 468 539 27,800 -2,640 Descending Washington Center
05:27PM 39.1158 -76.2683 42° Northeast 468 539 24,700 -1,980 Descending Washington Center
05:28PM 39.2247 -76.1461 41° Northeast 468 539 24,000 -540 Descending Washington Center
05:29PM 39.3272 -76.0422 38° Northeast 468 539 23,700 -1,860 Descending Washington Center
05:31PM 39.5667 -75.8167 36° Northeast 443 510 18,000 -2,400 Descending Philadelphia TRACON
05:32PM 39.6667 -75.7333 33° Northeast 413 475 15,800 -2,220 Descending Philadelphia TRACON
05:33PM 39.7500 -75.6500 38° Northeast 402 463 13,600 -1,440 Descending Philadelphia TRACON
05:34PM 39.8333 -75.5667 38° Northeast 393 452 13,000 -300 Descending Philadelphia TRACON
05:35PM 39.9333 -75.4833 33° Northeast 388 447 13,100  Climbing Philadelphia TRACON
05:36PM 40.0167 -75.4000 37° Northeast 390 449 13,100 -60 Level Philadelphia TRACON
05:37PM 40.1167 -75.3000 37° Northeast 397 457 13,000 -240 Descending Philadelphia TRACON
05:38PM 40.2000 -75.2333 31° Northeast 388 447 12,700 -1,440 Descending Philadelphia TRACON
05:40PM 40.3333 -75.1333 30° Northeast 333 383 9,500 -2,100 Descending New York TRACON
05:41PM 40.3833 -75.0500 52° Northeast 309 356 7,500 -1,380 Descending New York TRACON
05:42PM 40.4333 -74.9500 57° Northeast 299 344 6,700 -1,020 Descending New York TRACON
05:43PM 40.5000 -74.8667 44° Northeast 300 345 5,400 -1,380 Descending New York TRACON
05:44PM 40.5500 -74.7833 52° Northeast 293 337 4,000 -720 Descending New York TRACON
05:45PM 40.6000 -74.7167 45° Northeast 298 343 4,000  Level New York TRACON
05:46PM 40.6833 -74.6667 24° Northeast 286 329 4,000 -120 Level New York TRACON
05:47PM 40.7500 -74.6333 21° North 285 328 3,800 -540 Descending New York TRACON
05:48PM 40.8333 -74.5833 24° Northeast 293 337 3,000 -420 Descending New York TRACON
05:49PM 40.9000 -74.5333 30° Northeast 294 338 3,000  Level New York TRACON
05:50PM 40.9500 -74.4667 45° Northeast 281 323 3,000  Level New York TRACON
05:51PM 40.9833 -74.4000 56° Northeast 245 282 3,000  Level New York TRACON
05:52PM 41.0333 -74.3167 51° Northeast 229 264 3,000  Level New York TRACON
05:53PM 41.0667 -74.2667 49° Northeast 212 244 3,000  Level New York TRACON
05:54PM 41.0833 -74.1833 75° East 219 252 3,000 -60 Level New York TRACON
05:55PM 41.0667 -74.1167 108° East 202 232 2,900 -540 Descending New York TRACON
05:56PM 41.0333 -74.0667 131° Southeast 184 212 2,000 -480 Descending New York TRACON
05:57PM 41.0000 -74.0500 159° South 159 183 2,000 -60 Level New York TRACON
05:58PM 40.9500 -74.0500 180° South 155 178 1,900 -480 Descending New York TRACON
05:59PM 40.9167 -74.0500 180° South 144 166 1,100 -780 Descending New York TRACON